Time;durP1;ratioP1;P1;durP2;ratioP2;P2;SDS_P1;SDS_P2;PMS_P1;PMS_P2;Temp;Humidity;BMP_temperature;BMP_pressure;BME280_temperature;BME280_humidity;BME280_pressure;Samples;Min_cycle;Max_cycle;Signal;HPM_P1;HPM_P2
2022/01/30 00:00:41;;;;;;;38.97;15.10;;;;;;;-4.20;64.52;95238.22;5132639;27;20035;-68
2022/01/30 00:03:06;;;;;;;36.67;14.52;;;;;;;-4.21;64.34;95252.56;5131087;27;20030;-69
2022/01/30 00:05:34;;;;;;;69.80;20.20;;;;;;;-4.24;64.06;95231.50;5131003;27;20027;-68
2022/01/30 00:08:00;;;;;;;61.97;18.88;;;;;;;-4.16;64.58;95240.63;5122397;27;20527;-68
2022/01/30 00:10:25;;;;;;;50.72;17.48;;;;;;;-4.24;64.62;95241.66;5110101;28;20031;-68
2022/01/30 00:12:57;;;;;;;40.30;15.00;;;;;;;-4.26;64.93;95244.25;5093503;28;20027;-68
2022/01/30 00:15:39;;;;;;;34.70;14.00;;;;;;;-4.22;64.78;95245.84;5110614;28;20477;-68
2022/01/30 00:20:38;;;;;;;31.35;12.77;;;;;;;-4.45;65.09;95237.81;5131162;27;20196;-68
2022/01/30 00:23:12;;;;;;;29.45;11.68;;;;;;;-4.31;64.89;95236.69;5130898;27;20039;-68
2022/01/30 00:25:49;;;;;;;51.45;17.20;;;;;;;-4.27;64.63;95217.19;5130846;27;20031;-68
2022/01/30 00:28:17;;;;;;;52.17;15.45;;;;;;;-4.32;65.13;95214.75;5117699;27;20115;-68
2022/01/30 00:30:42;;;;;;;60.10;17.00;;;;;;;-4.35;64.85;95209.69;5098109;28;20492;-68
2022/01/30 00:33:08;;;;;;;51.83;16.40;;;;;;;-4.35;64.93;95206.34;5109917;28;20055;-68
2022/01/30 00:35:33;;;;;;;53.45;17.35;;;;;;;-4.43;65.64;95206.50;5127040;27;20512;-68
2022/01/30 00:38:00;;;;;;;49.08;16.85;;;;;;;-4.50;65.80;95203.22;5109355;28;20071;-69
2022/01/30 00:40:25;;;;;;;21.67;9.68;;;;;;;-4.34;63.71;95200.41;5109982;28;20036;-68
2022/01/30 00:42:51;;;;;;;23.88;9.40;;;;;;;-4.62;64.23;95195.84;5109966;28;20024;-68
2022/01/30 00:45:16;;;;;;;33.47;11.32;;;;;;;-4.62;64.13;95211.06;5110281;28;20444;-68
2022/01/30 00:47:42;;;;;;;36.03;13.23;;;;;;;-4.67;65.25;95194.25;5110108;28;20459;-68
2022/01/30 00:50:07;;;;;;;32.42;12.18;;;;;;;-4.78;65.55;95189.38;5111870;28;20048;-68
2022/01/30 00:52:33;;;;;;;34.92;12.70;;;;;;;-4.86;65.77;95181.06;5111078;28;20034;-69
2022/01/30 00:54:58;;;;;;;41.13;13.80;;;;;;;-4.92;66.49;95160.91;5092780;28;20020;-69
2022/01/30 00:57:24;;;;;;;32.55;12.50;;;;;;;-4.75;66.07;95191.84;5112666;28;20023;-68
2022/01/30 00:59:49;;;;;;;33.80;11.93;;;;;;;-4.90;65.35;95176.88;5130276;28;20485;-68
2022/01/30 01:02:16;;;;;;;31.98;10.52;;;;;;;-4.90;65.38;95179.41;5113420;28;20054;-68
2022/01/30 01:04:42;;;;;;;24.38;8.95;;;;;;;-4.81;65.76;95189.44;5130387;28;20027;-68
2022/01/30 01:07:14;;;;;;;23.27;10.30;;;;;;;-4.74;65.67;95168.16;5130386;28;20031;-68
2022/01/30 01:09:41;;;;;;;25.35;10.35;;;;;;;-4.72;64.25;95164.72;5125506;28;20106;-68
2022/01/30 01:25:15;;;;;;;19.85;8.85;;;;;;;-4.99;64.41;95101.88;5130783;28;20088;-68
2022/01/30 01:27:41;;;;;;;18.38;8.15;;;;;;;-4.75;64.11;95136.91;5112994;28;20027;-68
2022/01/30 01:30:07;;;;;;;20.00;8.23;;;;;;;-4.72;65.22;95144.44;5129579;28;20035;-68
2022/01/30 01:32:32;;;;;;;16.40;6.88;;;;;;;-4.77;63.49;95136.09;5130017;27;20061;-68
2022/01/30 01:34:58;;;;;;;14.57;6.93;;;;;;;-4.97;63.69;95106.03;5108732;28;20263;-68
2022/01/30 01:37:23;;;;;;;18.45;7.18;;;;;;;-4.90;63.72;95123.66;5109598;28;20035;-68
2022/01/30 01:39:49;;;;;;;19.40;7.60;;;;;;;-5.00;63.76;95116.22;5092387;28;20043;-68
2022/01/30 01:42:16;;;;;;;19.10;7.88;;;;;;;-5.06;63.54;95123.94;5110794;28;20035;-68
2022/01/30 01:44:46;;;;;;;26.30;9.35;;;;;;;-5.29;64.46;95105.75;5116785;27;20035;-68
2022/01/30 01:47:12;;;;;;;25.73;10.63;;;;;;;-5.22;65.09;95114.94;5133114;27;20231;-68
2022/01/30 01:49:39;;;;;;;18.60;8.60;;;;;;;-5.30;65.20;95104.09;5116536;27;20038;-68
2022/01/30 01:54:43;;;;;;;26.80;10.30;;;;;;;-5.22;65.77;95107.34;5098848;28;20096;-68
2022/01/30 01:57:09;;;;;;;23.52;9.73;;;;;;;-5.37;65.64;95087.34;5079269;28;20068;-68
2022/01/30 01:59:34;;;;;;;33.45;14.15;;;;;;;-5.42;64.38;95087.41;5113960;27;20024;-68
2022/01/30 02:02:01;;;;;;;40.75;17.33;;;;;;;-5.62;65.36;95080.97;5114258;28;20027;-68
2022/01/30 02:04:27;;;;;;;39.70;17.55;;;;;;;-5.63;65.79;95093.66;5113979;27;20024;-68
2022/01/30 02:07:18;;;;;;;34.47;15.75;;;;;;;-5.91;66.45;95066.22;5116305;27;20038;-69
2022/01/30 02:09:41;;;;;;;43.00;17.13;;;;;;;-5.96;67.21;95045.28;5133136;27;20476;-68
2022/01/30 02:12:14;;;;;;;32.20;12.90;;;;;;;-5.75;67.52;95076.13;5133321;27;20031;-68
2022/01/30 02:14:50;;;;;;;13.95;7.63;;;;;;;-5.90;67.07;95057.81;5112606;28;20412;-68
2022/01/30 02:25:37;;;;;;;11.48;6.65;;;;;;;-5.84;66.24;95077.13;5112891;28;20043;-68
2022/01/30 02:28:09;;;;;;;13.35;5.75;;;;;;;-5.82;65.50;95072.00;5131698;27;20039;-67
2022/01/30 02:30:37;;;;;;;13.95;6.20;;;;;;;-5.94;65.88;95086.56;5116872;27;20019;-68
2022/01/30 02:33:03;;;;;;;14.90;5.70;;;;;;;-6.21;66.84;95081.88;5116042;27;20504;-68
2022/01/30 02:35:28;;;;;;;14.40;6.28;;;;;;;-6.13;66.53;95067.44;5131959;27;20027;-67
2022/01/30 02:37:56;;;;;;;13.65;6.80;;;;;;;-6.16;66.10;95065.78;5134002;27;20027;-70
2022/01/30 02:40:22;;;;;;;17.90;6.75;;;;;;;-6.27;66.75;95046.56;5116087;27;20027;-68
2022/01/30 02:42:51;;;;;;;11.60;6.13;;;;;;;-6.18;66.55;95037.16;5132812;27;20035;-68
2022/01/30 02:45:18;;;;;;;14.05;5.93;;;;;;;-6.25;66.87;95034.75;5132252;27;20484;-68
2022/01/30 02:47:58;;;;;;;12.10;6.78;;;;;;;-6.32;66.07;95021.38;5130755;27;20035;-68
2022/01/30 02:50:52;;;;;;;13.20;6.47;;;;;;;-6.21;66.42;95032.16;5132650;27;20051;-68
2022/01/30 02:53:17;;;;;;;20.30;8.23;;;;;;;-6.30;66.26;95027.22;5111977;28;20038;-68
2022/01/30 02:55:43;;;;;;;18.55;7.60;;;;;;;-6.48;66.45;95023.25;5113338;28;20027;-68
2022/01/30 02:58:08;;;;;;;22.88;12.15;;;;;;;-6.47;67.32;95029.97;5111697;28;20031;-68
2022/01/30 03:00:33;;;;;;;22.00;9.20;;;;;;;-6.56;66.91;95007.38;5094817;28;20035;-68
2022/01/30 03:02:59;;;;;;;21.58;11.10;;;;;;;-6.52;67.08;95021.63;5111797;28;20077;-68
2022/01/30 03:05:24;;;;;;;15.88;9.32;;;;;;;-6.48;67.95;95038.44;5100132;28;20114;-68
2022/01/30 03:07:52;;;;;;;22.25;8.68;;;;;;;-6.46;68.16;95033.34;5128882;27;20042;-67
2022/01/30 03:10:17;;;;;;;18.92;10.13;;;;;;;-6.49;67.25;95021.59;5111695;28;20493;-69
2022/01/30 03:12:42;;;;;;;29.88;13.20;;;;;;;-6.50;67.61;95024.97;5111415;28;20093;-68
2022/01/30 03:15:08;;;;;;;24.27;12.73;;;;;;;-6.72;68.71;95000.84;5105086;28;20028;-68
2022/01/30 03:17:33;;;;;;;19.38;8.07;;;;;;;-6.51;68.69;95028.38;5094523;28;20035;-68
2022/01/30 03:19:59;;;;;;;15.98;7.25;;;;;;;-6.52;67.51;95003.91;5111457;28;20023;-68
2022/01/30 03:22:25;;;;;;;18.17;8.02;;;;;;;-6.47;67.18;95019.88;5094715;28;20039;-68
2022/01/30 03:24:51;;;;;;;26.00;9.13;;;;;;;-6.59;67.52;95005.72;5129426;27;20035;-68
2022/01/30 03:27:16;;;;;;;24.70;10.13;;;;;;;-6.53;67.57;95014.91;5131978;27;20038;-68
2022/01/30 03:29:49;;;;;;;22.98;9.40;;;;;;;-6.59;68.14;95022.56;5131807;27;20023;-67
2022/01/30 03:32:15;;;;;;;24.73;7.43;;;;;;;-6.56;67.49;95022.53;5131910;27;20063;-67
2022/01/30 03:34:41;;;;;;;14.27;8.00;;;;;;;-6.57;67.11;95024.22;5114490;27;20457;-68
2022/01/30 03:37:06;;;;;;;14.07;6.07;;;;;;;-6.50;66.38;95022.44;5129712;27;20042;-68
2022/01/30 03:39:31;;;;;;;10.98;6.30;;;;;;;-6.60;66.90;95018.34;5114382;27;20031;-67
2022/01/30 03:41:57;;;;;;;12.73;6.60;;;;;;;-6.64;68.00;95021.78;5114413;27;20031;-68
2022/01/30 03:44:22;;;;;;;12.23;5.40;;;;;;;-6.81;67.46;95006.84;5126232;27;20072;-68
2022/01/30 03:46:48;;;;;;;15.55;6.60;;;;;;;-6.76;67.17;95017.75;5110960;28;20032;-67
2022/01/30 03:49:13;;;;;;;17.17;6.57;;;;;;;-6.81;67.55;95032.13;5076966;28;20051;-68
2022/01/30 03:51:39;;;;;;;16.13;6.78;;;;;;;-6.81;68.03;95034.66;5110939;28;20417;-67
2022/01/30 03:54:04;;;;;;;13.35;6.60;;;;;;;-6.87;68.08;95027.16;5111697;28;20039;-68
2022/01/30 03:56:30;;;;;;;16.85;7.30;;;;;;;-6.79;68.86;95031.25;5125931;27;20095;-67
2022/01/30 03:58:55;;;;;;;13.77;6.47;;;;;;;-6.87;68.60;95009.47;5131455;27;20095;-68
2022/01/30 04:01:20;;;;;;;17.85;6.60;;;;;;;-6.89;69.50;94996.00;5126079;27;20020;-68
2022/01/30 04:03:46;;;;;;;40.10;14.77;;;;;;;-6.73;70.75;95016.88;5110650;28;20367;-67
2022/01/30 04:06:12;;;;;;;28.02;12.35;;;;;;;-6.62;70.98;95020.09;5111476;27;20024;-68
2022/01/30 04:08:38;;;;;;;20.48;9.52;;;;;;;-6.49;70.69;95023.28;5093167;28;20032;-68
2022/01/30 04:11:04;;;;;;;15.77;7.57;;;;;;;-6.57;70.30;94993.06;5110460;28;20023;-68
2022/01/30 04:13:30;;;;;;;15.70;8.15;;;;;;;-6.67;69.77;94961.19;5116206;27;20500;-68
2022/01/30 04:15:55;;;;;;;19.77;7.35;;;;;;;-6.43;69.05;94990.34;5113929;27;20030;-68
2022/01/30 04:18:21;;;;;;;15.25;7.25;;;;;;;-6.22;69.22;95005.19;5096866;27;20042;-67
2022/01/30 04:20:47;;;;;;;17.55;6.70;;;;;;;-6.27;68.72;94996.81;5131004;27;20031;-67
2022/01/30 04:23:13;;;;;;;15.63;7.63;;;;;;;-6.22;68.34;94989.19;5130917;27;20112;-67
2022/01/30 04:25:38;;;;;;;14.07;7.28;;;;;;;-6.14;68.61;94993.25;5110202;28;20040;-67
2022/01/30 04:28:04;;;;;;;13.65;6.50;;;;;;;-6.11;67.91;94992.38;5110185;28;20023;-68
2022/01/30 04:30:29;;;;;;;14.98;6.43;;;;;;;-6.18;68.37;94965.53;5111445;28;20500;-68
2022/01/30 04:32:55;;;;;;;16.90;7.28;;;;;;;-6.13;68.02;94962.06;5109893;28;20074;-67
2022/01/30 04:35:27;;;;;;;17.27;7.18;;;;;;;-6.13;68.10;94949.41;5111518;28;20542;-67
2022/01/30 04:56:56;;;;;;;17.13;6.72;;;;;;;-5.56;68.09;94899.47;5119956;27;20138;-68
2022/01/30 05:07:38;;;;;;;18.88;11.20;;;;;;;-5.37;65.24;94958.19;5110044;28;20089;-68
2022/01/30 05:10:04;;;;;;;22.52;13.32;;;;;;;-5.42;65.48;94963.34;5093113;28;20034;-67
2022/01/30 05:12:50;;;;;;;21.92;13.25;;;;;;;-5.56;65.76;94956.00;5109726;28;20040;-68
2022/01/30 05:15:18;;;;;;;21.52;11.05;;;;;;;-5.55;66.26;94946.69;5109902;28;20043;-67
2022/01/30 05:17:44;;;;;;;18.02;9.70;;;;;;;-5.59;66.43;94924.84;5110992;28;20027;-68
2022/01/30 05:20:10;;;;;;;17.77;8.88;;;;;;;-5.68;66.71;94895.47;5112548;27;20172;-68
2022/01/30 05:22:35;;;;;;;21.13;10.25;;;;;;;-5.78;67.11;94873.72;5079905;28;20039;-68
2022/01/30 05:25:01;;;;;;;18.67;8.68;;;;;;;-5.69;67.20;94873.53;5096694;28;20054;-67
2022/01/30 05:27:27;;;;;;;15.95;8.30;;;;;;;-5.63;66.96;94876.81;5096848;28;20100;-69
2022/01/30 05:29:53;;;;;;;16.45;7.43;;;;;;;-5.63;67.65;94875.94;5125682;27;20076;-67
2022/01/30 05:32:18;;;;;;;18.33;7.60;;;;;;;-5.81;67.03;94858.59;5117052;27;20027;-67
2022/01/30 05:34:44;;;;;;;13.20;7.15;;;;;;;-5.86;67.00;94851.91;5133373;27;20027;-67
2022/01/30 05:37:09;;;;;;;12.52;5.60;;;;;;;-5.88;67.23;94845.22;5114412;27;20038;-68
2022/01/30 05:39:35;;;;;;;13.32;5.68;;;;;;;-5.74;66.84;94855.06;5113305;28;20023;-68
2022/01/30 05:42:01;;;;;;;16.17;6.18;;;;;;;-5.65;66.74;94857.44;5114601;28;20036;-67
2022/01/30 05:44:41;;;;;;;22.90;13.80;;;;;;;-5.74;66.76;94876.19;5116335;27;20061;-68
2022/01/30 05:47:10;;;;;;;14.98;8.75;;;;;;;-5.61;67.36;94891.94;5118986;27;20039;-68
2022/01/30 05:49:36;;;;;;;20.92;6.70;;;;;;;-5.49;67.11;94896.78;5116938;27;20051;-68
2022/01/30 05:52:02;;;;;;;15.32;7.35;;;;;;;-5.55;67.32;94916.31;5133428;27;20464;-67
2022/01/30 05:54:27;;;;;;;16.33;7.80;;;;;;;-5.44;67.05;94940.56;5112611;28;20031;-68
2022/01/30 05:56:53;;;;;;;22.05;13.27;;;;;;;-5.55;67.31;94927.28;5096200;28;20032;-67
2022/01/30 05:59:18;;;;;;;106.75;31.63;;;;;;;-5.33;66.66;94917.56;5095918;28;20390;-68
2022/01/30 06:01:44;;;;;;;43.38;19.95;;;;;;;-5.43;67.05;94922.00;5113329;27;20509;-67
2022/01/30 06:04:09;;;;;;;38.92;18.65;;;;;;;-5.56;67.87;94910.41;5113368;27;20015;-67
2022/01/30 06:06:35;;;;;;;34.67;16.55;;;;;;;-5.39;68.12;94922.75;5116512;27;20401;-68
2022/01/30 06:09:19;;;;;;;32.42;16.52;;;;;;;-5.36;68.00;94897.38;5116181;27;20546;-67
2022/01/30 06:11:49;;;;;;;37.38;19.85;;;;;;;-5.27;68.21;94893.81;5119134;27;20036;-67
2022/01/30 06:14:18;;;;;;;33.00;18.30;;;;;;;-5.46;68.15;94861.28;5100318;28;20042;-68
2022/01/30 06:16:43;;;;;;;37.70;18.67;;;;;;;-5.24;68.39;94891.22;5112689;28;20421;-68
2022/01/30 06:19:09;;;;;;;40.78;18.58;;;;;;;-5.55;68.30;94841.19;5096734;28;20350;-68
2022/01/30 06:21:34;;;;;;;22.80;12.10;;;;;;;-5.16;68.24;94875.00;5078878;28;20019;-67
2022/01/30 06:24:01;;;;;;;20.02;10.05;;;;;;;-5.05;68.40;94866.34;5112604;28;20031;-67
2022/01/30 06:26:27;;;;;;;13.00;7.07;;;;;;;-4.93;66.60;94840.75;5115309;27;20031;-68
2022/01/30 06:28:53;;;;;;;16.30;7.95;;;;;;;-4.85;65.98;94843.91;5109443;27;20035;-68
2022/01/30 06:31:18;;;;;;;12.38;6.63;;;;;;;-4.83;65.51;94824.44;5127106;27;20031;-68
2022/01/30 06:33:43;;;;;;;13.88;5.80;;;;;;;-4.84;64.07;94840.53;5107298;27;20042;-68
2022/01/30 06:36:09;;;;;;;10.18;5.47;;;;;;;-4.92;64.48;94854.25;5111013;28;20024;-69
2022/01/30 06:38:35;;;;;;;14.48;6.30;;;;;;;-4.81;64.33;94839.63;5108227;28;20031;-70
2022/01/30 06:41:00;;;;;;;47.55;16.45;;;;;;;-4.75;65.06;94847.09;5131925;27;20039;-69
2022/01/30 06:43:26;;;;;;;70.70;23.30;;;;;;;-4.63;65.64;94815.53;5133831;27;20070;-68
2022/01/30 06:45:51;;;;;;;52.80;23.27;;;;;;;-4.49;66.35;94816.84;5129671;27;20027;-69
2022/01/30 06:48:18;;;;;;;52.75;25.42;;;;;;;-4.62;66.77;94832.44;5131408;27;20126;-68
2022/01/30 06:50:44;;;;;;;54.42;23.52;;;;;;;-4.45;66.85;94832.84;5096730;27;20055;-68
2022/01/30 06:53:09;;;;;;;59.95;26.48;;;;;;;-4.45;67.67;94865.81;5111463;27;20091;-69
2022/01/30 06:55:35;;;;;;;89.50;42.70;;;;;;;-4.41;67.35;94866.56;5119198;27;20023;-68
2022/01/30 06:58:00;;;;;;;83.50;41.10;;;;;;;-4.50;68.39;94880.31;5139849;27;20039;-70
2022/01/30 07:00:26;;;;;;;140.40;63.17;;;;;;;-4.49;68.26;94867.56;5131707;27;20406;-69
2022/01/30 07:02:51;;;;;;;100.95;48.42;;;;;;;-4.47;68.72;94848.97;5114413;27;20539;-69
2022/01/30 07:05:17;;;;;;;90.40;44.33;;;;;;;-4.36;68.76;94845.31;5131602;27;20438;-69
2022/01/30 07:07:42;;;;;;;76.88;35.58;;;;;;;-4.32;68.68;94815.59;5116069;27;20027;-68
2022/01/30 07:10:08;;;;;;;70.43;31.95;;;;;;;-4.35;68.99;94820.75;5129811;27;20685;-69
2022/01/30 07:12:34;;;;;;;75.10;35.85;;;;;;;-4.30;68.79;94806.28;5104728;28;20046;-69
2022/01/30 07:14:59;;;;;;;68.88;32.92;;;;;;;-3.96;68.17;94846.00;5105926;28;20081;-69
2022/01/30 07:17:24;;;;;;;59.80;25.75;;;;;;;-4.05;67.96;94832.66;5122812;27;20027;-69
2022/01/30 07:19:51;;;;;;;62.03;30.80;;;;;;;-4.07;68.60;94821.75;5113223;27;20030;-69
2022/01/30 07:22:16;;;;;;;77.18;40.13;;;;;;;-4.11;68.23;94837.91;5125818;27;20031;-69
2022/01/30 07:24:41;;;;;;;69.80;38.08;;;;;;;-3.92;68.44;94837.44;5110404;27;20039;-68
2022/01/30 07:27:07;;;;;;;62.55;33.15;;;;;;;-3.95;68.63;94817.22;5124602;27;20101;-69
2022/01/30 07:29:32;;;;;;;55.78;29.45;;;;;;;-3.82;68.43;94841.38;5129101;27;20023;-68
2022/01/30 07:31:58;;;;;;;59.95;27.98;;;;;;;-3.66;68.38;94857.06;5122441;27;20073;-69
2022/01/30 07:34:23;;;;;;;49.17;24.20;;;;;;;-3.66;66.91;94844.34;5111286;27;20062;-69
2022/01/30 07:36:49;;;;;;;53.80;27.60;;;;;;;-3.84;67.25;94822.84;5127273;27;20035;-70
2022/01/30 07:39:17;;;;;;;51.40;27.70;;;;;;;-3.73;67.84;94813.22;5109710;27;20038;-70
2022/01/30 07:41:43;;;;;;;48.42;25.98;;;;;;;-3.56;67.00;94820.38;5127985;27;20066;-70
2022/01/30 07:44:09;;;;;;;47.67;24.05;;;;;;;-3.46;67.45;94818.41;5101273;27;20063;-69
2022/01/30 07:46:34;;;;;;;52.35;23.45;;;;;;;-3.17;67.26;94846.34;5110571;27;20063;-69
2022/01/30 07:49:00;;;;;;;47.88;25.55;;;;;;;-3.07;66.96;94859.63;5135820;27;20041;-69
2022/01/30 07:51:25;;;;;;;32.17;17.70;;;;;;;-3.19;65.93;94815.06;5116757;27;20444;-69
2022/01/30 07:53:51;;;;;;;36.22;18.73;;;;;;;-3.15;65.26;94824.28;5118810;27;20474;-69
2022/01/30 07:56:16;;;;;;;39.35;19.05;;;;;;;-2.87;65.30;94871.75;5083066;27;20035;-69
2022/01/30 07:58:42;;;;;;;43.85;24.17;;;;;;;-3.19;65.03;94789.66;5121835;27;20406;-69
2022/01/30 08:01:07;;;;;;;55.53;26.70;;;;;;;-2.77;65.50;94812.09;5101519;27;20019;-69
2022/01/30 08:03:33;;;;;;;43.83;19.10;;;;;;;-2.28;64.28;94841.09;5119895;27;20016;-69
2022/01/30 08:05:58;;;;;;;45.60;20.35;;;;;;;-2.15;64.13;94831.31;5122403;27;20409;-69
2022/01/30 08:08:23;;;;;;;45.90;21.80;;;;;;;-2.12;62.75;94817.66;5112838;27;20050;-69
2022/01/30 08:10:49;;;;;;;41.58;18.27;;;;;;;-1.81;61.47;94818.28;5104865;27;20027;-68
2022/01/30 08:13:16;;;;;;;39.63;18.98;;;;;;;-1.45;62.00;94830.63;5123073;27;20209;-68
2022/01/30 08:15:42;;;;;;;34.78;16.77;;;;;;;-1.56;57.73;94769.03;5122077;27;20025;-68
2022/01/30 08:18:07;;;;;;;32.90;15.02;;;;;;;-1.19;56.51;94796.53;5097679;27;20031;-69
2022/01/30 08:20:33;;;;;;;34.20;15.85;;;;;;;-1.27;57.59;94780.69;5108924;27;20028;-68
2022/01/30 08:23:00;;;;;;;37.47;16.95;;;;;;;-1.17;57.76;94753.13;5106792;27;20066;-68
2022/01/30 08:25:26;;;;;;;34.10;17.65;;;;;;;-1.25;57.62;94750.88;5098590;28;20474;-68
2022/01/30 08:27:52;;;;;;;34.63;18.23;;;;;;;-0.98;58.31;94807.63;5128575;27;20019;-68
2022/01/30 08:30:18;;;;;;;33.55;15.52;;;;;;;-1.04;57.80;94792.56;5112560;27;20106;-69
2022/01/30 08:32:49;;;;;;;32.55;16.05;;;;;;;-0.85;57.64;94791.88;5124023;27;20080;-68
2022/01/30 08:35:14;;;;;;;30.25;16.20;;;;;;;-0.82;56.84;94787.47;5106661;27;20028;-68
2022/01/30 08:37:40;;;;;;;36.42;16.70;;;;;;;-0.68;55.30;94802.25;5106912;28;20489;-68
2022/01/30 08:40:08;;;;;;;41.33;18.20;;;;;;;-0.65;55.37;94804.66;5121254;27;20485;-68
2022/01/30 08:42:33;;;;;;;50.15;20.33;;;;;;;-0.64;55.23;94821.66;5112518;27;20110;-69
2022/01/30 08:44:59;;;;;;;55.15;21.25;;;;;;;-0.94;55.63;94778.56;5093042;28;20031;-69
2022/01/30 08:47:25;;;;;;;42.35;19.85;;;;;;;-0.76;55.54;94827.22;5110018;28;20038;-70
2022/01/30 08:49:50;;;;;;;34.03;14.48;;;;;;;-0.81;55.60;94809.53;5075894;28;20066;-68
2022/01/30 08:52:19;;;;;;;32.50;13.32;;;;;;;-0.75;55.03;94795.72;5129563;28;20027;-69
2022/01/30 08:54:44;;;;;;;27.33;10.15;;;;;;;-0.55;52.69;94823.84;5098843;27;20449;-68
2022/01/30 08:57:10;;;;;;;24.73;10.80;;;;;;;-0.64;53.03;94820.81;5103201;27;20103;-69
2022/01/30 08:59:35;;;;;;;23.77;11.75;;;;;;;-0.58;53.78;94831.63;5131230;27;20023;-68
2022/01/30 09:02:01;;;;;;;22.88;10.80;;;;;;;-0.80;54.49;94793.34;5100919;28;20511;-68
2022/01/30 09:04:26;;;;;;;27.25;12.73;;;;;;;-0.69;54.27;94814.16;5114637;28;20084;-68
2022/01/30 09:06:52;;;;;;;27.20;13.35;;;;;;;-0.66;54.55;94815.78;5110764;27;20031;-68
2022/01/30 09:09:17;;;;;;;28.40;13.95;;;;;;;-0.58;56.14;94830.78;5134608;27;20019;-69
2022/01/30 09:11:42;;;;;;;28.55;13.27;;;;;;;-0.79;54.47;94789.91;5117555;27;20084;-68
2022/01/30 09:14:08;;;;;;;32.60;14.35;;;;;;;-0.66;54.46;94786.88;5113091;28;20028;-68
2022/01/30 09:16:34;;;;;;;38.30;14.80;;;;;;;-0.42;56.10;94821.63;5110286;27;20027;-68
2022/01/30 09:18:59;;;;;;;31.55;13.60;;;;;;;-0.35;55.00;94824.78;5102144;27;20043;-68
2022/01/30 09:21:25;;;;;;;35.78;14.00;;;;;;;-0.24;53.60;94820.06;5119790;27;20027;-69
2022/01/30 09:23:50;;;;;;;31.38;13.30;;;;;;;-0.35;53.13;94814.56;5141347;27;20019;-71
2022/01/30 09:26:16;;;;;;;87.47;28.33;;;;;;;-0.43;53.99;94819.13;5156634;27;20046;-72
2022/01/30 09:28:41;;;;;;;32.80;14.50;;;;;;;-0.51;54.19;94825.38;5130327;27;20069;-70
2022/01/30 09:31:07;;;;;;;33.38;13.63;;;;;;;-0.41;53.07;94833.50;5113732;27;20019;-68
2022/01/30 09:33:32;;;;;;;30.05;12.95;;;;;;;-0.45;53.07;94808.97;5116437;28;20027;-73
2022/01/30 09:35:58;;;;;;;31.38;14.07;;;;;;;-0.53;54.47;94798.25;5128109;27;20027;-69
2022/01/30 09:38:24;;;;;;;34.13;14.30;;;;;;;-0.50;56.20;94790.50;5109831;27;20035;-68
2022/01/30 09:40:54;;;;;;;41.78;18.23;;;;;;;-0.53;55.35;94776.13;5116332;27;20020;-68
2022/01/30 09:43:20;;;;;;;36.15;15.95;;;;;;;-0.35;54.59;94760.94;5098730;27;20039;-68
2022/01/30 09:45:46;;;;;;;33.20;14.05;;;;;;;-0.20;54.81;94729.66;5100664;27;20031;-68
2022/01/30 09:48:12;;;;;;;41.72;17.40;;;;;;;-0.04;54.79;94740.06;5135041;27;20292;-69
2022/01/30 09:50:40;;;;;;;40.63;16.40;;;;;;;0.10;54.80;94736.91;5136081;27;20051;-68
2022/01/30 09:53:05;;;;;;;44.83;18.40;;;;;;;0.23;55.23;94722.72;5101214;27;20412;-68
2022/01/30 09:55:31;;;;;;;34.60;16.42;;;;;;;0.42;53.64;94710.78;5136737;27;20026;-68
2022/01/30 09:57:56;;;;;;;45.90;17.77;;;;;;;0.38;53.41;94706.69;5136688;27;20035;-68
2022/01/30 10:00:22;;;;;;;39.30;18.30;;;;;;;0.58;52.50;94704.97;5138203;27;20027;-68
2022/01/30 10:02:47;;;;;;;38.05;18.02;;;;;;;0.59;51.19;94691.31;5136789;27;20028;-69
2022/01/30 10:05:13;;;;;;;40.20;18.13;;;;;;;0.71;52.46;94682.22;5136799;27;20058;-68
2022/01/30 10:07:45;;;;;;;44.08;18.42;;;;;;;0.85;50.96;94684.97;5132939;27;20027;-68
2022/01/30 10:10:12;;;;;;;33.42;14.52;;;;;;;0.80;50.61;94687.72;5133554;27;20054;-68
2022/01/30 10:13:00;;;;;;;36.03;13.85;;;;;;;0.85;50.73;94679.84;5116506;27;20050;-69
2022/01/30 10:15:25;;;;;;;31.65;13.45;;;;;;;0.81;50.17;94663.84;5133347;27;20057;-68
2022/01/30 10:17:51;;;;;;;38.13;14.20;;;;;;;0.93;51.10;94671.84;5133363;27;20489;-68
2022/01/30 10:20:26;;;;;;;37.83;13.07;;;;;;;0.99;50.12;94658.75;5133541;27;20042;-68
2022/01/30 10:22:56;;;;;;;32.40;12.82;;;;;;;1.05;48.75;94673.78;5117056;27;20031;-68
2022/01/30 10:25:47;;;;;;;32.92;13.63;;;;;;;1.06;50.44;94671.16;5134595;27;20469;-68
2022/01/30 10:28:17;;;;;;;27.92;12.95;;;;;;;1.09;49.51;94677.88;5128518;27;20047;-69
2022/01/30 10:30:59;;;;;;;33.83;12.32;;;;;;;1.15;50.63;94682.69;5134554;27;20091;-68
2022/01/30 10:33:45;;;;;;;30.23;12.38;;;;;;;1.41;49.67;94694.22;5116426;27;20031;-68
2022/01/30 10:36:11;;;;;;;36.00;13.98;;;;;;;1.48;49.74;94681.97;5134569;27;20038;-68
2022/01/30 10:38:40;;;;;;;29.38;13.43;;;;;;;1.55;49.22;94665.38;5111528;27;20441;-68
2022/01/30 10:41:15;;;;;;;29.58;12.98;;;;;;;1.69;50.02;94660.38;5129439;27;20023;-69
2022/01/30 10:43:46;;;;;;;30.10;14.02;;;;;;;1.74;48.62;94655.84;5102636;28;20039;-68
2022/01/30 10:46:18;;;;;;;;;;;;;;;1.73;48.54;94654.22;5124142;27;20035;-68
2022/01/30 10:48:59;;;;;;;29.30;12.48;;;;;;;1.78;49.20;94643.72;5123622;27;20459;-69
2022/01/30 10:51:29;;;;;;;26.70;11.85;;;;;;;1.85;48.29;94637.38;5113040;28;20051;-68
2022/01/30 10:53:59;;;;;;;26.95;10.88;;;;;;;2.06;45.66;94614.94;5093390;28;20043;-68
2022/01/30 10:56:27;;;;;;;25.00;11.73;;;;;;;2.08;45.41;94602.88;5112344;28;20110;-68
2022/01/30 10:59:15;;;;;;;31.08;12.80;;;;;;;2.09;47.18;94599.41;5112070;28;20032;-68
2022/01/30 11:01:45;;;;;;;26.77;13.77;;;;;;;2.15;49.01;94599.09;5113683;28;20043;-69
2022/01/30 11:04:30;;;;;;;33.72;13.40;;;;;;;2.39;49.33;94614.03;5095186;28;20027;-69
2022/01/30 11:06:58;;;;;;;25.52;10.73;;;;;;;2.35;48.01;94612.56;5116154;27;20066;-69
2022/01/30 11:09:46;;;;;;;26.35;13.30;;;;;;;2.38;48.18;94615.78;5097257;27;20027;-69
2022/01/30 11:12:13;;;;;;;31.42;13.75;;;;;;;2.55;47.45;94616.63;5108499;27;20469;-70
2022/01/30 11:17:18;;;;;;;33.65;15.15;;;;;;;2.64;47.12;94606.66;5102919;27;20028;-68
2022/01/30 11:19:48;;;;;;;31.67;14.63;;;;;;;2.67;46.90;94574.88;5097397;27;20054;-71
2022/01/30 11:22:15;;;;;;;35.25;15.68;;;;;;;2.68;47.56;94562.00;5095530;27;20110;-70
2022/01/30 11:24:47;;;;;;;24.45;12.07;;;;;;;2.75;46.82;94554.78;5077664;28;20031;-69
2022/01/30 11:27:12;;;;;;;;;;;;;;;2.81;47.30;94554.41;5112881;27;20569;-70
2022/01/30 11:29:38;;;;;;;31.77;12.80;;;;;;;2.86;46.10;94549.03;5133029;27;20011;-69
2022/01/30 11:32:06;;;;;;;27.10;13.23;;;;;;;2.89;46.43;94561.69;5114227;27;20471;-69
2022/01/30 11:34:33;;;;;;;30.50;13.95;;;;;;;2.87;46.52;94561.78;5120667;27;20404;-69
2022/01/30 11:36:58;;;;;;;30.73;14.63;;;;;;;2.87;46.42;94568.63;5125633;27;20031;-70
2022/01/30 11:39:24;;;;;;;30.27;14.23;;;;;;;2.85;46.80;94567.91;5115718;27;20020;-69
2022/01/30 11:42:10;;;;;;;36.28;15.02;;;;;;;2.76;45.16;94570.97;5128310;27;20031;-70
2022/01/30 11:44:36;;;;;;;25.17;13.35;;;;;;;2.76;45.67;94570.97;5114498;27;20106;-69
2022/01/30 11:47:01;;;;;;;25.67;12.75;;;;;;;2.86;46.15;94572.94;5118630;27;20150;-71
2022/01/30 11:49:39;;;;;;;34.75;14.70;;;;;;;2.96;46.41;94575.00;5132465;27;20412;-68
2022/01/30 11:52:06;;;;;;;38.72;14.63;;;;;;;2.99;46.53;94560.25;5132469;27;20114;-69
2022/01/30 11:54:33;;;;;;;30.27;13.35;;;;;;;3.05;47.08;94543.69;5125623;27;20024;-69
2022/01/30 11:56:59;;;;;;;21.48;9.77;;;;;;;2.89;45.17;94541.16;5109190;27;20046;-69
2022/01/30 11:59:37;;;;;;;23.20;9.90;;;;;;;2.96;45.93;94545.03;5108878;28;20043;-69
2022/01/30 12:02:22;;;;;;;22.98;10.77;;;;;;;2.97;45.63;94526.16;5116896;27;20046;-69
2022/01/30 12:04:58;;;;;;;20.88;9.93;;;;;;;2.97;45.48;94521.03;5118151;27;20031;-69
2022/01/30 12:07:35;;;;;;;23.13;10.35;;;;;;;3.00;46.44;94525.97;5130977;27;20068;-69
2022/01/30 12:10:16;;;;;;;20.35;11.48;;;;;;;3.07;46.79;94519.59;5130724;27;20497;-70
2022/01/30 12:12:48;;;;;;;25.50;12.20;;;;;;;3.08;47.49;94523.78;5124931;27;20502;-68
2022/01/30 12:15:42;;;;;;;29.42;14.82;;;;;;;3.11;47.02;94523.59;5150826;27;20066;-69
2022/01/30 12:18:08;;;;;;;69.82;25.10;;;;;;;3.19;46.73;94519.78;5125911;27;20038;-70
2022/01/30 12:21:08;;;;;;;85.60;29.98;;;;;;;3.29;46.97;94519.16;5104929;27;20019;-69